Deer Meadows, Washington
Current Conditions -  °F | °C
As of 2:58 PM on Tuesday 25 Nov 2014 (Local Time) from KSKA Reporting Station
Light Rain Light Rain  
Wind Chill: 29°   Ceiling: 2400
Heat Index: 35°   Visibility: 10mi
Dew Point: 34°   Wind: 8mph
Humidity: 95%   Direction: 30°NNE
Pressure: 30.19"   Gusts: NA
Location:  47.7035°N, 118.192°W
Report Text: KSKA 252258Z AUTO 03007KT 10SM -RA FEW007 OVC024 02/01 A3019 RMK AO2 SLP244 P0002 T00190012 RVRNO VISNO RWY05 $
Loading
Personal Weather Stations






























Interactive Weather Map New forecast layout! Learn more

10-Day Weather Forecast

Advertisements
Track Severe Weather on mobile